Time;durP1;ratioP1;P1;durP2;ratioP2;P2;SDS_P1;SDS_P2;PMS_P1;PMS_P2;Temp;Humidity;BMP_temperature;BMP_pressure;BME280_temperature;BME280_humidity;BME280_pressure;Samples;Min_cycle;Max_cycle;Signal;HPM_P1;HPM_P2
2024/04/17 00:00:12;;;;;;;1.90;1.10;;;;;;;7.63;96.36;153318.94;5357743;26;20474;-85
2024/04/17 00:02:37;;;;;;;1.30;1.00;;;;;;;7.60;96.40;153311.25;5381000;26;20521;-86
2024/04/17 00:05:09;;;;;;;1.47;0.93;;;;;;;7.56;96.41;153302.19;5386451;26;21039;-85
2024/04/17 00:07:34;;;;;;;1.57;1.13;;;;;;;7.54;96.58;153297.03;5362670;26;20244;-84
2024/04/17 00:10:02;;;;;;;2.20;1.00;;;;;;;7.46;96.79;153275.06;5336771;26;20471;-84
2024/04/17 00:12:28;;;;;;;1.97;0.80;;;;;;;7.44;97.28;153269.91;5381167;26;20274;-84
2024/04/17 00:14:56;;;;;;;1.40;0.80;;;;;;;7.38;96.98;153254.41;5361790;26;20473;-84
2024/04/17 00:17:22;;;;;;;1.73;0.90;;;;;;;7.32;97.55;153241.47;5353063;26;20271;-84
2024/04/17 00:19:50;;;;;;;1.00;0.70;;;;;;;7.33;97.69;153244.03;5380259;26;20531;-85
2024/04/17 00:22:18;;;;;;;1.80;1.03;;;;;;;7.34;97.52;153246.63;5381605;26;20347;-85
2024/04/17 00:24:46;;;;;;;1.37;1.00;;;;;;;7.30;97.42;153235.03;5369942;26;20583;-86
2024/04/17 00:27:12;;;;;;;1.00;0.90;;;;;;;7.21;97.01;153213.06;5388203;26;20512;-85
2024/04/17 00:29:40;;;;;;;1.30;0.77;;;;;;;7.19;97.76;153206.63;5353908;26;20533;-86
2024/04/17 00:32:07;;;;;;;1.20;0.80;;;;;;;7.18;97.72;153205.31;5403584;26;20583;-87
2024/04/17 00:34:35;;;;;;;0.90;0.57;;;;;;;7.14;97.86;153195.00;5324255;26;20919;-87
2024/04/17 00:37:01;;;;;;;1.10;0.80;;;;;;;7.14;97.87;153195.00;5372698;26;20480;-87
2024/04/17 00:39:32;;;;;;;1.50;1.00;;;;;;;7.12;98.48;153189.81;5396043;26;20988;-87
2024/04/17 00:41:57;;;;;;;2.07;1.17;;;;;;;7.17;98.46;153202.75;5337165;26;20352;-86
2024/04/17 00:44:26;;;;;;;2.10;0.90;;;;;;;7.22;98.50;153215.66;5393150;26;20469;-87
2024/04/17 00:46:51;;;;;;;1.27;0.90;;;;;;;7.25;98.08;153223.38;5378309;26;20379;-87
2024/04/17 00:49:20;;;;;;;1.10;0.70;;;;;;;7.11;98.45;153187.25;5351416;26;20561;-87
2024/04/17 00:51:47;;;;;;;1.70;1.30;;;;;;;7.06;98.55;153174.34;5354860;26;20251;-88
2024/04/17 00:54:15;;;;;;;1.57;1.07;;;;;;;7.08;99.06;153178.19;5358829;26;20474;-87
2024/04/17 00:56:43;;;;;;;1.50;1.20;;;;;;;7.08;99.00;153179.50;5358943;26;20457;-86
2024/04/17 00:59:12;;;;;;;1.67;1.10;;;;;;;7.07;99.63;153176.91;5360474;26;20476;-86
2024/04/17 01:01:38;;;;;;;1.07;0.77;;;;;;;7.07;99.47;153176.91;5364718;26;20509;-86
2024/04/17 01:04:06;;;;;;;1.83;1.27;;;;;;;7.09;99.91;153180.81;5409015;26;20484;-86
2024/04/17 01:06:32;;;;;;;1.50;0.97;;;;;;;7.11;99.92;153187.25;5376900;26;20239;-84
2024/04/17 01:09:00;;;;;;;1.60;1.37;;;;;;;7.13;100.00;153192.41;5386863;26;20860;-84
2024/04/17 01:11:25;;;;;;;1.30;1.00;;;;;;;7.12;100.00;153189.81;5349427;26;20251;-83
2024/04/17 01:13:56;;;;;;;1.70;1.23;;;;;;;7.11;100.00;153187.25;5404104;26;20470;-83
2024/04/17 01:16:22;;;;;;;2.67;1.60;;;;;;;7.11;100.00;153185.94;5385806;26;20602;-83
2024/04/17 01:18:50;;;;;;;2.43;1.53;;;;;;;7.10;100.00;153183.34;5388091;26;20473;-83
2024/04/17 01:21:16;;;;;;;2.40;1.43;;;;;;;7.10;100.00;153184.66;5345479;26;20232;-82
2024/04/17 01:23:44;;;;;;;1.97;1.10;;;;;;;7.13;100.00;153191.09;5384451;26;20464;-84
2024/04/17 01:26:12;;;;;;;3.07;1.63;;;;;;;7.11;100.00;153187.25;5386030;26;20934;-85
2024/04/17 01:28:40;;;;;;;1.97;1.37;;;;;;;7.11;100.00;153185.94;5344704;26;20481;-85
2024/04/17 01:31:07;;;;;;;8.93;1.33;;;;;;;7.08;100.00;153179.50;5361332;26;20555;-84
2024/04/17 01:33:35;;;;;;;1.20;1.07;;;;;;;7.08;100.00;153179.50;5402751;26;20476;-84
2024/04/17 01:36:01;;;;;;;1.50;1.40;;;;;;;7.08;100.00;153179.50;5363634;26;20853;-84
2024/04/17 01:38:29;;;;;;;3.83;1.13;;;;;;;7.08;100.00;153178.19;5369046;26;20475;-84
2024/04/17 01:40:55;;;;;;;1.23;1.10;;;;;;;7.09;100.00;153180.81;5382571;26;20466;-84
2024/04/17 01:43:26;;;;;;;2.13;1.33;;;;;;;7.02;100.00;153162.69;5400859;26;20595;-84
2024/04/17 01:45:52;;;;;;;1.47;1.10;;;;;;;6.95;100.00;153145.94;5334965;26;20251;-84
2024/04/17 01:48:20;;;;;;;1.60;0.90;;;;;;;6.93;100.00;153140.78;5367467;26;20908;-84
2024/04/17 01:50:46;;;;;;;1.70;1.30;;;;;;;6.93;100.00;153140.78;5378210;26;20273;-84
2024/04/17 01:53:14;;;;;;;1.60;0.90;;;;;;;6.93;100.00;153140.78;5344667;26;20850;-85
2024/04/17 01:55:39;;;;;;;1.77;0.90;;;;;;;6.91;100.00;153135.59;5393863;26;20343;-86
2024/04/17 01:58:07;;;;;;;2.20;1.40;;;;;;;6.94;100.00;153143.34;5389562;26;20480;-85
2024/04/17 02:00:37;;;;;;;1.40;1.00;;;;;;;6.92;100.00;153138.19;5371092;26;20262;-84
2024/04/17 02:03:05;;;;;;;1.70;1.30;;;;;;;6.92;100.00;153136.88;5369808;26;20480;-86
2024/04/17 02:05:31;;;;;;;1.57;1.30;;;;;;;6.96;100.00;153148.53;5333796;26;20578;-85
2024/04/17 02:07:59;;;;;;;1.83;1.57;;;;;;;6.98;100.00;153152.38;5392752;26;20482;-87
2024/04/17 02:10:25;;;;;;;2.27;1.37;;;;;;;6.97;100.00;153151.09;5340851;26;20729;-87
2024/04/17 02:12:53;;;;;;;1.90;1.20;;;;;;;6.99;100.00;153155.00;5388804;26;20523;-87
2024/04/17 02:15:18;;;;;;;1.43;1.17;;;;;;;7.00;100.00;153157.53;5355212;26;20327;-87
2024/04/17 02:17:49;;;;;;;1.50;1.20;;;;;;;6.99;100.00;153156.25;5374758;26;20889;-88
2024/04/17 02:20:15;;;;;;;1.50;1.03;;;;;;;7.00;100.00;153158.84;5352724;26;20264;-87
2024/04/17 02:22:43;;;;;;;2.07;1.23;;;;;;;6.99;100.00;153155.00;5389559;26;20569;-88
2024/04/17 02:25:08;;;;;;;1.80;1.40;;;;;;;6.98;100.00;153153.69;5347868;26;20244;-89
2024/04/17 02:27:36;;;;;;;2.17;1.20;;;;;;;6.97;100.00;153149.78;5397998;26;20921;-89
2024/04/17 02:30:03;;;;;;;2.10;1.60;;;;;;;6.99;100.00;153156.25;5363903;26;20306;-89
2024/04/17 02:32:56;;;;;;;2.00;1.27;;;;;;;7.00;100.00;153158.84;5362009;26;20464;-89
2024/04/17 02:35:21;;;;;;;2.77;1.67;;;;;;;7.00;100.00;153157.53;5381646;26;20524;-89
2024/04/17 02:37:50;;;;;;;2.00;1.60;;;;;;;6.99;100.00;153156.25;5368473;26;20461;-89
2024/04/17 02:40:15;;;;;;;1.93;1.33;;;;;;;6.99;100.00;153156.25;5343610;26;20251;-89
2024/04/17 02:42:44;;;;;;;1.87;1.40;;;;;;;6.99;100.00;153156.25;5393785;26;20518;-89
2024/04/17 02:45:09;;;;;;;1.90;1.53;;;;;;;6.99;100.00;153156.25;5371876;26;20607;-90
2024/04/17 02:47:37;;;;;;;1.83;1.40;;;;;;;6.99;100.00;153156.25;5361935;26;20560;-89
2024/04/17 02:50:06;;;;;;;2.00;1.63;;;;;;;7.01;100.00;153160.13;5400618;26;20277;-89
2024/04/17 02:52:34;;;;;;;2.30;1.70;;;;;;;7.00;100.00;153158.84;5376534;26;20465;-89
2024/04/17 02:55:02;;;;;;;3.00;1.73;;;;;;;6.98;100.00;153153.69;5410051;26;20497;-90
2024/04/17 02:57:30;;;;;;;2.17;1.47;;;;;;;6.99;100.00;153155.00;5364026;26;20593;-89
2024/04/17 02:59:56;;;;;;;2.30;1.77;;;;;;;6.99;100.00;153156.25;5341356;26;20511;-90
2024/04/17 03:02:24;;;;;;;2.63;1.63;;;;;;;7.00;100.00;153157.53;5383865;26;20458;-91
2024/04/17 03:04:50;;;;;;;2.40;1.70;;;;;;;7.00;100.00;153158.84;5346460;26;20248;-89
2024/04/17 03:07:20;;;;;;;2.10;1.30;;;;;;;7.00;100.00;153158.84;5385439;26;21055;-89
2024/04/17 03:09:47;;;;;;;2.47;1.87;;;;;;;6.98;100.00;153152.38;5368835;26;20867;-89
2024/04/17 03:12:15;;;;;;;2.00;1.50;;;;;;;6.98;100.00;153153.69;5384054;26;20466;-90
2024/04/17 03:14:40;;;;;;;2.40;1.47;;;;;;;6.99;100.00;153156.25;5400412;26;20473;-88
2024/04/17 03:17:09;;;;;;;2.37;1.80;;;;;;;7.00;100.00;153157.53;5368123;26;20580;-89
2024/04/17 03:19:34;;;;;;;2.23;1.40;;;;;;;6.98;100.00;153152.38;5389048;26;20248;-89
2024/04/17 03:22:02;;;;;;;2.03;1.27;;;;;;;6.97;100.00;153151.09;5366831;26;20505;-88
2024/04/17 03:24:31;;;;;;;1.67;1.07;;;;;;;6.95;100.00;153145.94;5384197;26;20247;-89
2024/04/17 03:26:59;;;;;;;2.10;1.10;;;;;;;6.93;100.00;153140.78;5368659;26;20469;-86
2024/04/17 03:29:24;;;;;;;1.60;1.20;;;;;;;6.92;100.00;153138.19;5374967;26;20474;-86
2024/04/17 03:31:53;;;;;;;2.13;1.50;;;;;;;6.87;100.00;153125.28;5384252;26;20525;-85
2024/04/17 03:34:18;;;;;;;2.70;2.17;;;;;;;6.79;100.00;153103.31;5381432;26;20283;-85
2024/04/17 03:36:47;;;;;;;2.70;2.10;;;;;;;6.74;100.00;153091.72;5398773;26;20538;-85
2024/04/17 03:39:15;;;;;;;2.47;1.97;;;;;;;6.68;100.00;153076.22;5385399;26;20259;-86
2024/04/17 03:41:48;;;;;;;2.97;2.27;;;;;;;6.60;100.00;153055.56;5393275;26;21129;-85
2024/04/17 03:44:16;;;;;;;3.63;2.73;;;;;;;6.41;100.00;153006.53;5379307;26;20542;-84
2024/04/17 03:46:45;;;;;;;3.47;2.90;;;;;;;6.31;100.00;152980.72;5368170;26;21219;-85
2024/04/17 03:49:14;;;;;;;4.17;3.10;;;;;;;6.17;100.00;152944.63;5350981;26;20482;-84
2024/04/17 03:51:39;;;;;;;3.90;2.70;;;;;;;6.10;100.00;152927.84;5353086;26;20582;-84
2024/04/17 03:54:08;;;;;;;2.97;2.67;;;;;;;6.08;100.00;152923.97;5371105;26;20534;-84
2024/04/17 03:56:33;;;;;;;4.80;3.63;;;;;;;6.11;100.00;152931.72;5393021;26;20657;-84
2024/04/17 03:59:04;;;;;;;4.20;3.10;;;;;;;6.14;100.00;152938.19;5379082;26;20553;-84
2024/04/17 04:01:31;;;;;;;4.10;2.90;;;;;;;6.12;100.00;152932.97;5383084;26;20248;-84
2024/04/17 04:03:59;;;;;;;4.03;3.23;;;;;;;6.08;100.00;152922.69;5383250;26;20467;-84
2024/04/17 04:06:25;;;;;;;4.73;3.50;;;;;;;6.02;100.00;152908.50;5386288;26;20476;-84
2024/04/17 04:08:53;;;;;;;3.97;2.60;;;;;;;5.97;100.00;152894.28;5385626;26;20570;-84
2024/04/17 04:11:18;;;;;;;3.30;3.00;;;;;;;6.01;100.00;152904.66;5384772;26;20247;-85
2024/04/17 04:13:46;;;;;;;5.53;3.70;;;;;;;6.01;100.00;152905.88;5399274;26;21073;-85
2024/04/17 04:16:15;;;;;;;5.37;3.77;;;;;;;6.01;100.00;152905.88;5354561;26;20578;-84
2024/04/17 04:18:43;;;;;;;3.73;3.07;;;;;;;6.03;100.00;152911.09;5382433;26;20478;-83
2024/04/17 04:21:08;;;;;;;4.37;3.30;;;;;;;6.06;100.00;152918.78;5403201;26;20505;-83
2024/04/17 04:23:37;;;;;;;4.30;3.47;;;;;;;6.09;100.00;152926.53;5391416;26;20478;-83
2024/04/17 04:26:02;;;;;;;3.53;3.20;;;;;;;6.10;100.00;152929.13;5378130;26;20236;-83
2024/04/17 04:28:31;;;;;;;4.13;3.20;;;;;;;6.11;100.00;152930.44;5403563;26;20464;-83
2024/04/17 04:30:56;;;;;;;5.20;3.80;;;;;;;6.13;100.00;152935.59;5363056;26;20250;-83
2024/04/17 04:33:27;;;;;;;4.93;3.33;;;;;;;6.09;100.00;152926.53;5387073;26;20539;-83
2024/04/17 04:35:53;;;;;;;5.03;3.33;;;;;;;6.09;100.00;152926.53;5355852;26;20283;-85
2024/04/17 04:38:23;;;;;;;3.90;2.63;;;;;;;6.09;100.00;152926.53;5390060;26;20480;-83
2024/04/17 04:40:49;;;;;;;3.43;2.73;;;;;;;6.10;100.00;152929.13;5377489;26;20251;-87
2024/04/17 04:43:24;;;;;;;6.30;3.13;;;;;;;6.08;100.00;152923.97;5329520;26;20470;-88
2024/04/17 04:45:50;;;;;;;2.50;2.07;;;;;;;6.06;100.00;152918.78;5364332;26;20632;-86
2024/04/17 04:48:18;;;;;;;4.13;3.03;;;;;;;6.10;100.00;152927.84;5377691;26;20467;-88
2024/04/17 04:50:46;;;;;;;4.20;2.93;;;;;;;6.10;100.00;152929.13;5380782;26;20236;-89
2024/04/17 04:53:15;;;;;;;3.00;2.67;;;;;;;6.14;100.00;152938.19;5387709;26;20468;-90
2024/04/17 04:55:40;;;;;;;5.07;3.73;;;;;;;6.16;100.00;152942.03;5387743;26;20522;-89
2024/04/17 04:58:08;;;;;;;7.17;3.33;;;;;;;6.18;100.00;152947.19;5374607;26;20494;-92
2024/04/17 05:00:34;;;;;;;6.00;3.20;;;;;;;6.20;100.00;152952.31;5359926;26;20365;-93
2024/04/17 05:03:02;;;;;;;3.33;2.50;;;;;;;6.20;100.00;152952.31;5387070;26;20486;-94
2024/04/17 05:05:28;;;;;;;4.70;3.50;;;;;;;6.21;100.00;152954.94;5395796;26;20252;-95
2024/04/17 05:07:58;;;;;;;7.17;3.63;;;;;;;6.24;100.00;152962.66;5387678;26;20534;-95
2024/04/17 05:10:24;;;;;;;4.90;3.10;;;;;;;6.27;100.00;152970.41;5382110;26;20283;-96
2024/04/17 05:12:52;;;;;;;5.00;3.20;;;;;;;6.29;100.00;152976.88;5387542;26;21004;-95
2024/04/17 05:15:18;;;;;;;4.57;3.93;;;;;;;6.33;100.00;152987.16;5413612;26;20762;-94
2024/04/17 05:17:46;;;;;;;4.80;3.80;;;;;;;6.33;100.00;152985.91;5400695;26;20470;-95
2024/04/17 05:20:11;;;;;;;5.10;3.47;;;;;;;6.32;100.00;152984.63;5408656;26;20587;-95
2024/04/17 05:22:40;;;;;;;5.40;4.20;;;;;;;6.34;100.00;152988.47;5409321;26;20536;-94
2024/04/17 05:25:08;;;;;;;7.33;4.37;;;;;;;6.36;100.00;152994.91;5401145;26;20794;-92
2024/04/17 05:27:36;;;;;;;4.87;3.80;;;;;;;6.38;100.00;152998.81;5403258;26;20917;-91
2024/04/17 05:30:03;;;;;;;5.90;4.50;;;;;;;6.38;100.00;152998.81;5368499;26;20527;-90
2024/04/17 05:32:31;;;;;;;5.47;3.77;;;;;;;6.39;100.00;153001.38;5371601;26;21252;-89
2024/04/17 05:34:57;;;;;;;5.57;4.10;;;;;;;6.42;100.00;153009.13;5400847;26;20469;-90
2024/04/17 05:37:25;;;;;;;5.23;3.80;;;;;;;6.41;100.00;153007.81;5398859;26;20468;-90
2024/04/17 05:39:50;;;;;;;5.60;3.80;;;;;;;6.45;100.00;153018.16;5397106;26;20255;-90
2024/04/17 05:42:21;;;;;;;6.10;3.60;;;;;;;6.49;100.00;153027.16;5397434;26;20513;-90
2024/04/17 05:44:47;;;;;;;4.30;3.70;;;;;;;6.51;100.00;153032.38;5395933;26;20248;-90
2024/04/17 05:47:15;;;;;;;5.27;4.13;;;;;;;6.52;100.00;153034.91;5372639;26;21046;-89
2024/04/17 05:49:41;;;;;;;4.90;3.60;;;;;;;6.58;100.00;153050.41;5400692;26;20251;-90
2024/04/17 05:52:10;;;;;;;5.90;4.57;;;;;;;6.60;100.00;153056.88;5361809;26;20542;-88
2024/04/17 05:54:36;;;;;;;4.20;3.37;;;;;;;6.63;100.00;153064.63;5374174;26;20277;-88
2024/04/17 05:57:04;;;;;;;4.10;3.40;;;;;;;6.64;100.00;153065.91;5403352;26;20468;-89
2024/04/17 05:59:32;;;;;;;5.30;3.50;;;;;;;6.66;100.00;153071.06;5408885;26;20251;-88
2024/04/17 06:02:00;;;;;;;5.40;3.73;;;;;;;6.74;100.00;153091.72;5347637;26;21298;-88
2024/04/17 06:04:26;;;;;;;5.23;4.13;;;;;;;6.77;100.00;153099.47;5371446;26;20529;-88
2024/04/17 06:06:54;;;;;;;5.93;4.37;;;;;;;6.80;100.00;153107.22;5407926;26;20477;-87
2024/04/17 06:09:20;;;;;;;4.60;3.70;;;;;;;6.77;100.00;153098.19;5404641;26;20277;-87
2024/04/17 06:11:48;;;;;;;5.97;4.60;;;;;;;6.78;100.00;153100.78;5398578;26;20461;-88
2024/04/17 06:14:14;;;;;;;7.07;5.60;;;;;;;6.78;100.00;153102.03;5366431;26;20335;-88
2024/04/17 06:16:44;;;;;;;7.70;6.03;;;;;;;6.80;100.00;153107.22;5369251;26;21005;-87
2024/04/17 06:19:10;;;;;;;8.00;6.30;;;;;;;6.82;100.00;153112.38;5344191;26;20244;-88
2024/04/17 06:21:39;;;;;;;8.23;6.63;;;;;;;6.78;100.00;153102.03;5372298;26;20595;-88
2024/04/17 06:24:05;;;;;;;9.60;7.00;;;;;;;6.78;100.00;153100.78;5402877;26;20827;-88
2024/04/17 06:26:33;;;;;;;8.77;6.30;;;;;;;6.79;100.00;153104.63;5399114;26;20518;-88
2024/04/17 06:28:58;;;;;;;8.30;6.33;;;;;;;6.78;100.00;153102.03;5395110;26;21089;-89
2024/04/17 06:31:28;;;;;;;7.47;6.03;;;;;;;6.80;100.00;153107.22;5403822;26;20540;-89
2024/04/17 06:33:56;;;;;;;8.20;6.93;;;;;;;6.79;100.00;153103.31;5370408;26;20254;-89
2024/04/17 06:36:24;;;;;;;8.07;5.80;;;;;;;6.77;100.00;153099.47;5399021;26;20585;-89
2024/04/17 06:38:49;;;;;;;7.47;5.53;;;;;;;6.75;100.00;153094.31;5377379;26;20530;-89
2024/04/17 06:41:17;;;;;;;10.07;6.33;;;;;;;6.79;100.00;153103.31;5404794;26;20971;-88
2024/04/17 06:43:43;;;;;;;8.37;6.07;;;;;;;6.80;100.00;153105.91;5394091;26;20250;-90
2024/04/17 06:46:11;;;;;;;7.33;5.60;;;;;;;6.80;100.00;153107.22;5400206;26;20515;-88
2024/04/17 06:48:37;;;;;;;7.03;5.10;;;;;;;6.79;100.00;153104.63;5375033;26;20292;-88
2024/04/17 06:51:08;;;;;;;8.30;5.87;;;;;;;6.83;100.00;153114.94;5397956;26;20516;-89
2024/04/17 06:53:33;;;;;;;8.20;6.37;;;;;;;6.86;100.00;153122.69;5360990;26;20338;-89
2024/04/17 06:56:02;;;;;;;9.00;6.63;;;;;;;6.87;100.00;153125.28;5402104;26;20995;-88
2024/04/17 06:58:27;;;;;;;7.63;6.23;;;;;;;6.84;100.00;153117.53;5397597;26;20694;-88
2024/04/17 07:00:56;;;;;;;6.70;5.27;;;;;;;6.81;100.00;153109.78;5374872;26;20525;-88
2024/04/17 07:03:21;;;;;;;6.70;5.63;;;;;;;6.81;100.00;153109.78;5399561;26;20239;-88
2024/04/17 07:05:49;;;;;;;6.30;5.40;;;;;;;6.77;100.00;153099.47;5404925;26;20550;-89
2024/04/17 07:08:17;;;;;;;7.10;5.37;;;;;;;6.81;100.00;153108.47;5407422;26;20251;-88
2024/04/17 07:10:46;;;;;;;6.50;5.37;;;;;;;6.72;100.00;153087.81;5403262;26;20513;-88
2024/04/17 07:13:11;;;;;;;5.10;4.53;;;;;;;6.73;100.00;153089.13;5366887;26;20539;-88
2024/04/17 07:15:39;;;;;;;7.80;5.27;;;;;;;6.73;100.00;153090.41;5400765;26;20481;-89
2024/04/17 07:18:05;;;;;;;6.70;5.60;;;;;;;6.72;100.00;153087.81;5401507;26;20242;-87
2024/04/17 07:20:33;;;;;;;7.87;5.37;;;;;;;6.73;100.00;153089.13;5373454;26;20516;-87
2024/04/17 07:22:59;;;;;;;6.47;5.00;;;;;;;6.72;100.00;153087.81;5372952;26;21146;-86
2024/04/17 07:25:30;;;;;;;5.90;4.90;;;;;;;6.71;100.00;153085.28;5402015;26;20485;-87
2024/04/17 07:27:56;;;;;;;8.47;5.10;;;;;;;6.71;100.00;153085.28;5403253;26;20235;-88
2024/04/17 07:30:24;;;;;;;6.73;5.40;;;;;;;6.78;100.00;153100.78;5371366;26;20512;-88
2024/04/17 07:32:49;;;;;;;6.67;4.50;;;;;;;6.77;100.00;153098.19;5394866;26;20282;-89
2024/04/17 07:35:18;;;;;;;7.50;5.30;;;;;;;6.85;100.00;153120.13;5369415;26;20476;-89
2024/04/17 07:37:43;;;;;;;6.90;5.27;;;;;;;6.93;100.00;153139.47;5404196;26;20365;-88
2024/04/17 07:40:14;;;;;;;6.50;4.47;;;;;;;6.91;100.00;153135.59;5375049;26;20520;-88
2024/04/17 07:42:42;;;;;;;6.10;4.60;;;;;;;6.99;100.00;153156.25;5388643;26;20259;-89
2024/04/17 07:45:10;;;;;;;5.33;3.70;;;;;;;7.00;100.00;153157.53;5390014;26;20470;-88
2024/04/17 07:47:36;;;;;;;5.63;4.23;;;;;;;7.02;100.00;153164.00;5392754;26;20511;-88
2024/04/17 07:50:04;;;;;;;6.13;4.30;;;;;;;6.99;100.00;153156.25;5408456;26;20481;-87
2024/04/17 07:52:30;;;;;;;5.93;4.60;;;;;;;6.96;100.00;153147.25;5370443;26;20526;-87
2024/04/17 07:54:58;;;;;;;5.27;4.40;;;;;;;6.98;100.00;153153.69;5370693;26;20467;-85
2024/04/17 07:57:26;;;;;;;5.93;4.13;;;;;;;6.87;100.00;153125.28;5399560;26;20737;-84
2024/04/17 07:59:54;;;;;;;6.57;4.60;;;;;;;6.86;100.00;153121.44;5402889;26;20472;-86
2024/04/17 08:02:22;;;;;;;7.27;5.20;;;;;;;6.85;100.00;153118.81;5368361;26;20473;-86
2024/04/17 08:04:48;;;;;;;8.53;4.93;;;;;;;6.84;100.00;153117.53;5406231;26;20525;-86
2024/04/17 08:07:16;;;;;;;7.00;5.47;;;;;;;6.84;100.00;153117.53;5369314;26;20469;-84
2024/04/17 08:09:42;;;;;;;5.60;4.10;;;;;;;6.83;100.00;153114.94;5370599;26;20268;-84
2024/04/17 08:12:10;;;;;;;7.20;5.20;;;;;;;6.89;100.00;153130.44;5396674;26;21061;-86
2024/04/17 08:14:36;;;;;;;6.70;4.90;;;;;;;6.87;100.00;153123.97;5370143;26;20247;-87
2024/04/17 08:17:07;;;;;;;6.37;4.97;;;;;;;6.84;100.00;153117.53;5402793;26;20559;-87
2024/04/17 08:19:34;;;;;;;7.57;5.43;;;;;;;6.84;100.00;153117.53;5366616;26;20243;-88
2024/04/17 08:22:02;;;;;;;8.43;6.50;;;;;;;6.87;100.00;153123.97;5400660;26;20485;-88
2024/04/17 08:24:28;;;;;;;7.00;6.10;;;;;;;6.88;100.00;153127.88;5401761;26;20481;-89
2024/04/17 08:26:56;;;;;;;7.80;5.60;;;;;;;6.87;100.00;153125.28;5381652;26;20548;-88
2024/04/17 08:29:21;;;;;;;8.23;6.20;;;;;;;6.86;100.00;153122.69;5331789;26;20251;-88
2024/04/17 08:31:50;;;;;;;7.70;6.40;;;;;;;6.85;100.00;153120.13;5396913;26;20609;-91
2024/04/17 08:34:18;;;;;;;11.00;7.80;;;;;;;6.88;100.00;153127.88;5400579;26;20251;-90
2024/04/17 08:36:46;;;;;;;10.40;7.10;;;;;;;6.89;100.00;153129.13;5366703;26;20995;-90
2024/04/17 08:39:14;;;;;;;9.53;6.47;;;;;;;6.88;100.00;153127.88;5375433;26;20549;-90
2024/04/17 08:41:47;;;;;;;7.50;6.47;;;;;;;6.95;100.00;153145.94;5357511;26;20482;-92
2024/04/17 08:44:17;;;;;;;10.30;6.63;;;;;;;7.02;100.00;153164.00;5348431;26;20458;-92
2024/04/17 08:46:43;;;;;;;8.57;7.00;;;;;;;7.15;100.00;153197.56;5383491;26;20498;-92
2024/04/17 08:49:13;;;;;;;10.27;7.43;;;;;;;7.31;100.00;153237.59;5352959;26;20525;-91
2024/04/17 08:51:41;;;;;;;9.30;6.40;;;;;;;7.44;100.00;153269.91;5382681;26;20449;-91
2024/04/17 08:54:09;;;;;;;9.20;7.13;;;;;;;7.61;100.00;153313.78;5384553;26;20466;-91
2024/04/17 08:56:36;;;;;;;9.77;7.63;;;;;;;7.70;100.00;153337.06;5386728;26;20496;-92
2024/04/17 08:59:04;;;;;;;9.47;7.53;;;;;;;7.78;100.00;153357.72;5417504;26;20596;-93
2024/04/17 09:01:32;;;;;;;9.53;7.43;;;;;;;7.92;100.00;153395.19;5418289;26;20820;-93
2024/04/17 09:04:01;;;;;;;8.60;6.70;;;;;;;7.98;100.00;153409.41;5418650;26;20788;-94
2024/04/17 09:06:27;;;;;;;9.17;7.07;;;;;;;8.09;100.00;153436.53;5418393;26;20920;-96
2024/04/17 09:08:58;;;;;;;8.13;6.40;;;;;;;8.11;100.00;153443.00;5388017;26;20472;-95
2024/04/17 09:11:24;;;;;;;8.93;7.40;;;;;;;8.17;100.00;153458.50;5387509;26;20441;-95
2024/04/17 09:13:52;;;;;;;8.43;6.83;;;;;;;8.15;100.00;153453.34;5418704;26;21090;-95
2024/04/17 09:16:20;;;;;;;8.37;6.23;;;;;;;8.11;100.00;153443.00;5381286;26;20236;-94
2024/04/17 09:18:47;;;;;;;9.10;6.80;;;;;;;8.04;100.00;153424.91;5339688;26;20586;-90
2024/04/17 09:21:15;;;;;;;8.00;5.47;;;;;;;7.92;100.00;153393.88;5373620;26;20527;-91
2024/04/17 09:23:42;;;;;;;6.37;5.70;;;;;;;7.85;100.00;153375.81;5374590;26;21047;-91
2024/04/17 09:26:17;;;;;;;6.63;5.30;;;;;;;7.70;100.00;153337.06;5378117;26;21033;-93
2024/04/17 09:28:43;;;;;;;7.20;5.53;;;;;;;7.65;100.00;153324.16;5383871;26;20499;-92
2024/04/17 09:31:11;;;;;;;6.77;5.10;;;;;;;7.57;100.00;153304.72;5349740;26;20614;-95
2024/04/17 09:33:42;;;;;;;8.77;5.77;;;;;;;7.47;100.00;153277.63;5333838;26;20291;-95
2024/04/17 09:36:10;;;;;;;6.53;5.70;;;;;;;7.47;100.00;153277.63;5384281;26;20473;-93
2024/04/17 09:38:36;;;;;;;8.37;6.57;;;;;;;7.44;100.00;153271.16;5406203;26;20494;-92
2024/04/17 09:41:04;;;;;;;6.63;5.87;;;;;;;7.42;100.00;153264.69;5400912;26;20991;-91
2024/04/17 09:43:33;;;;;;;8.10;6.63;;;;;;;7.35;100.00;153249.25;5373233;26;20242;-91
2024/04/17 09:46:02;;;;;;;7.40;6.13;;;;;;;7.31;100.00;153237.59;5397560;26;20526;-94
2024/04/17 09:48:28;;;;;;;7.23;6.17;;;;;;;7.27;100.00;153227.28;5372525;26;20533;-93
2024/04/17 09:51:01;;;;;;;9.17;7.50;;;;;;;7.28;100.00;153231.13;5401417;26;20477;-95
2024/04/17 09:53:30;;;;;;;7.10;6.13;;;;;;;7.32;100.00;153240.19;5408465;26;20586;-94
2024/04/17 09:55:59;;;;;;;9.37;7.40;;;;;;;7.36;100.00;153251.78;5378021;26;20510;-94
2024/04/17 09:58:26;;;;;;;9.27;7.43;;;;;;;7.33;100.00;153244.03;5376465;26;20533;-92
2024/04/17 10:00:57;;;;;;;8.30;7.10;;;;;;;7.27;100.00;153228.56;5399197;26;20522;-92
2024/04/17 10:03:23;;;;;;;7.63;6.63;;;;;;;7.26;100.00;153224.66;5407801;26;20478;-91
2024/04/17 10:05:51;;;;;;;8.83;7.60;;;;;;;7.30;100.00;153236.34;5402188;26;20469;-91
2024/04/17 10:08:17;;;;;;;9.50;7.23;;;;;;;7.20;100.00;153209.22;5381195;26;20602;-90
2024/04/17 10:10:45;;;;;;;8.90;7.03;;;;;;;7.12;100.00;153189.81;5405443;26;20546;-90
2024/04/17 10:13:11;;;;;;;8.30;5.57;;;;;;;7.00;100.00;153158.84;5372728;26;21234;-89
2024/04/17 10:15:40;;;;;;;5.80;5.00;;;;;;;7.00;100.00;153157.53;5405849;26;20465;-93
2024/04/17 10:18:08;;;;;;;7.10;5.30;;;;;;;7.08;100.00;153179.50;5390016;26;20474;-95
2024/04/17 10:20:36;;;;;;;6.53;5.47;;;;;;;7.21;100.00;153211.78;5414575;26;20477;-95
2024/04/17 10:23:05;;;;;;;8.50;6.43;;;;;;;7.28;100.00;153229.88;5421611;26;20457;-96
2024/04/17 10:25:34;;;;;;;6.13;5.40;;;;;;;7.36;100.00;153251.78;5361837;26;20453;-96
2024/04/17 10:28:04;;;;;;;8.10;6.20;;;;;;;7.45;100.00;153273.75;5386529;26;20464;-95
2024/04/17 10:30:37;;;;;;;6.93;6.23;;;;;;;7.49;100.00;153284.13;5410719;26;20543;-94
2024/04/17 10:33:03;;;;;;;8.17;6.37;;;;;;;7.61;100.00;153313.78;5392224;26;20477;-93
2024/04/17 10:35:33;;;;;;;8.90;7.90;;;;;;;7.69;100.00;153335.75;5400768;26;20524;-94
2024/04/17 10:38:05;;;;;;;9.57;8.00;;;;;;;7.72;100.00;153342.22;5410403;26;20511;-93
2024/04/17 10:40:33;;;;;;;9.17;8.20;;;;;;;7.75;100.00;153351.28;5366107;26;20482;-95
2024/04/17 10:42:59;;;;;;;10.90;8.50;;;;;;;7.85;100.00;153375.81;5407845;26;20473;-95
2024/04/17 10:45:28;;;;;;;11.10;9.77;;;;;;;7.94;100.00;153400.34;5387348;26;20542;-96
2024/04/17 10:47:59;;;;;;;14.37;9.20;;;;;;;8.01;100.00;153417.16;5417472;26;20827;-95
2024/04/17 10:50:27;;;;;;;12.97;10.77;;;;;;;8.13;100.00;153448.13;5417220;26;20437;-95
2024/04/17 10:52:57;;;;;;;12.17;10.27;;;;;;;8.22;100.00;153470.13;5417123;26;20524;-96
2024/04/17 10:55:26;;;;;;;12.63;9.53;;;;;;;8.32;100.00;153496.00;5417345;26;20501;-96
2024/04/17 10:57:53;;;;;;;12.53;9.20;;;;;;;8.43;100.00;153525.75;5385074;26;20449;-95
2024/04/17 11:00:22;;;;;;;13.50;10.80;;;;;;;8.54;100.00;153554.19;5416991;26;20441;-95
2024/04/17 11:02:47;;;;;;;13.37;9.23;;;;;;;8.64;100.00;153577.44;5416899;26;20465;-95
2024/04/17 11:05:16;;;;;;;12.67;9.87;;;;;;;8.68;100.00;153587.81;5416988;26;20516;-95
2024/04/17 11:07:41;;;;;;;12.87;8.67;;;;;;;8.70;100.00;153594.28;5385012;26;20219;-96
2024/04/17 11:10:14;;;;;;;10.70;8.73;;;;;;;8.74;100.00;153604.59;5416051;26;20449;-96
2024/04/17 11:12:40;;;;;;;11.13;8.97;;;;;;;8.84;100.00;153629.19;5416468;26;20250;-96
2024/04/17 11:15:08;;;;;;;10.60;9.20;;;;;;;8.92;100.00;153651.13;5385050;26;20449;-94
2024/04/17 11:17:34;;;;;;;12.80;10.17;;;;;;;8.92;100.00;153649.88;5384459;26;20603;-95
2024/04/17 11:20:02;;;;;;;11.97;10.27;;;;;;;8.96;100.00;153660.19;5416277;26;20465;-95
2024/04/17 11:22:28;;;;;;;12.67;10.00;;;;;;;8.96;100.00;153661.50;5385269;26;20219;-95
2024/04/17 11:24:58;;;;;;;12.20;10.07;;;;;;;9.00;100.00;153670.56;5385699;26;20456;-96